createdAt,value
2023-01-09T00:01:34.234Z,35.50
2023-01-09T00:04:02.796Z,33.20
2023-01-09T00:06:31.094Z,27.60
2023-01-09T00:08:59.413Z,31.20
2023-01-09T00:11:30.255Z,25.10
2023-01-09T00:13:58.849Z,26.60
2023-01-09T00:16:27.223Z,30.50
2023-01-09T00:18:55.696Z,35.80
2023-01-09T00:21:26.703Z,27.90
2023-01-09T00:23:58.105Z,37.40
2023-01-09T00:26:26.378Z,29.70
2023-01-09T00:28:54.587Z,25.90
2023-01-09T00:31:23.073Z,28.40
2023-01-09T00:34:00.032Z,29.10
2023-01-09T00:36:28.741Z,24.50
2023-01-09T00:38:57.320Z,26.70
2023-01-09T00:41:43.878Z,23.90
2023-01-09T00:44:16.623Z,25.10
2023-01-09T00:46:55.739Z,24.50
2023-01-09T00:49:24.764Z,23.10
2023-01-09T00:51:54.893Z,26.80
2023-01-09T00:54:23.629Z,27.80
2023-01-09T00:56:51.922Z,25.10
2023-01-09T00:59:20.041Z,27.60
2023-01-09T01:01:48.576Z,27.90
2023-01-09T01:04:35.323Z,28.90
2023-01-09T01:07:24.922Z,28.30
2023-01-09T01:09:53.319Z,23.40
2023-01-09T01:12:21.602Z,27.80
2023-01-09T01:14:53.362Z,28.40
2023-01-09T01:17:26.904Z,25.40
2023-01-09T01:19:58.041Z,25.40
2023-01-09T01:22:26.176Z,27.20
2023-01-09T01:24:54.216Z,25.10
2023-01-09T01:27:22.556Z,23.40
2023-01-09T01:29:50.750Z,18.10
2023-01-09T01:32:19.272Z,20.40
2023-01-09T01:34:47.984Z,21.20
2023-01-09T01:37:16.580Z,22.80
2023-01-09T01:39:44.870Z,22.40
2023-01-09T01:42:13.899Z,24.20
2023-01-09T01:44:59.494Z,24.30
2023-01-09T01:47:32.633Z,26.80
2023-01-09T01:50:04.834Z,19.60
2023-01-09T01:52:37.507Z,25.50
2023-01-09T01:55:09.180Z,27.20
2023-01-09T01:57:40.600Z,25.80
2023-01-09T02:00:10.097Z,21.80
2023-01-09T02:02:38.520Z,30.70
2023-01-09T02:05:07.163Z,22.50
2023-01-09T02:07:35.581Z,25.90
2023-01-09T02:10:04.739Z,27.50
2023-01-09T02:12:33.102Z,39.20
2023-01-09T02:15:13.853Z,75.20
2023-01-09T02:18:05.345Z,31.60
2023-01-09T02:20:46.301Z,31.80
2023-01-09T02:23:39.520Z,92.50
2023-01-09T02:26:48.320Z,27.20
2023-01-09T02:29:27.838Z,30.10
2023-01-09T02:32:20.838Z,26.20
2023-01-09T02:35:03.354Z,23.00
2023-01-09T02:38:01.112Z,25.70
2023-01-09T02:40:35.421Z,25.50
2023-01-09T02:43:05.297Z,24.50
2023-01-09T02:45:33.510Z,24.20
2023-01-09T02:48:01.674Z,26.70
2023-01-09T02:50:41.972Z,32.20
2023-01-09T02:53:41.689Z,16.90
2023-01-09T02:56:30.469Z,39.40
2023-01-09T02:58:58.683Z,26.60
2023-01-09T03:01:56.227Z,25.80
2023-01-09T03:04:38.892Z,25.90
2023-01-09T03:07:30.685Z,25.60
2023-01-09T03:10:12.380Z,21.50
2023-01-09T03:12:43.255Z,19.50
2023-01-09T03:15:15.103Z,27.90
2023-01-09T03:17:47.252Z,22.50
2023-01-09T03:20:21.354Z,19.50
2023-01-09T03:23:01.850Z,15.90
2023-01-09T03:25:31.679Z,17.00
2023-01-09T03:28:03.017Z,21.00
2023-01-09T03:30:33.711Z,16.40
2023-01-09T03:33:05.860Z,23.10
2023-01-09T03:35:36.149Z,21.70
2023-01-09T03:38:07.307Z,21.70
2023-01-09T03:40:36.173Z,26.30
2023-01-09T03:43:07.027Z,20.90
2023-01-09T03:45:35.250Z,16.30
2023-01-09T03:48:03.617Z,15.70
2023-01-09T03:50:31.822Z,16.60
2023-01-09T03:53:00.437Z,17.00
2023-01-09T03:55:28.830Z,16.50
2023-01-09T03:57:57.761Z,17.30
2023-01-09T04:00:25.946Z,15.60
2023-01-09T04:02:54.135Z,15.70
2023-01-09T04:05:22.448Z,16.70
2023-01-09T04:07:51.094Z,18.60
2023-01-09T04:10:19.151Z,22.20
2023-01-09T04:12:47.250Z,21.20
2023-01-09T04:15:15.349Z,14.30
2023-01-09T04:17:43.501Z,16.20
2023-01-09T04:20:12.057Z,20.10
2023-01-09T04:22:40.459Z,22.40
2023-01-09T04:25:09.213Z,19.30
2023-01-09T04:27:37.264Z,16.10
2023-01-09T04:30:06.213Z,17.20
2023-01-09T04:32:34.319Z,19.50
2023-01-09T04:35:02.445Z,13.80
2023-01-09T04:37:30.948Z,11.40
2023-01-09T04:40:03.459Z,12.70
2023-01-09T04:42:35.208Z,11.20
2023-01-09T04:45:04.637Z,10.40
2023-01-09T04:47:36.153Z,11.10
2023-01-09T04:50:04.818Z,14.60
2023-01-09T04:52:33.176Z,35.30
2023-01-09T04:55:01.374Z,33.90
2023-01-09T04:57:29.790Z,46.50
2023-01-09T04:59:58.126Z,20.20
2023-01-09T05:02:26.295Z,16.20
2023-01-09T05:04:54.467Z,17.60
2023-01-09T05:07:22.721Z,16.20
2023-01-09T05:09:50.935Z,30.40
2023-01-09T05:12:19.081Z,19.70
2023-01-09T05:14:47.382Z,21.70
2023-01-09T05:17:15.607Z,16.30
2023-01-09T05:19:45.599Z,17.40
2023-01-09T05:22:14.105Z,31.40
2023-01-09T05:24:42.334Z,45.30
2023-01-09T05:27:10.447Z,26.70
2023-01-09T05:29:38.773Z,25.70
2023-01-09T05:32:07.101Z,25.00
2023-01-09T05:34:35.783Z,24.00
2023-01-09T05:37:03.948Z,23.20
2023-01-09T05:39:32.392Z,13.50
2023-01-09T05:42:00.766Z,14.40
2023-01-09T05:44:29.254Z,13.20
2023-01-09T05:46:57.792Z,11.50
2023-01-09T05:49:26.012Z,12.80
2023-01-09T05:51:54.184Z,15.40
2023-01-09T05:54:22.672Z,18.20
2023-01-09T05:56:50.769Z,19.30
2023-01-09T05:59:21.382Z,24.10
2023-01-09T06:01:49.524Z,18.70
2023-01-09T06:04:17.703Z,17.60
2023-01-09T06:06:45.947Z,19.60
2023-01-09T06:09:16.528Z,19.40
2023-01-09T06:11:44.751Z,20.90
2023-01-09T06:14:13.040Z,17.00
2023-01-09T06:16:41.171Z,22.80
2023-01-09T06:19:09.377Z,20.80
2023-01-09T06:21:37.814Z,19.20
2023-01-09T06:24:09.272Z,17.40
2023-01-09T06:26:37.555Z,21.70
2023-01-09T06:29:06.006Z,23.60
2023-01-09T06:31:34.350Z,26.10
2023-01-09T06:34:02.452Z,23.90
2023-01-09T06:36:30.801Z,20.90
2023-01-09T06:38:59.237Z,19.70
2023-01-09T06:41:29.755Z,24.00
2023-01-09T06:43:58.224Z,22.80
2023-01-09T06:46:26.612Z,22.30
2023-01-09T06:48:55.175Z,20.20
2023-01-09T06:51:23.320Z,27.30
2023-01-09T06:53:51.518Z,29.60
2023-01-09T06:56:20.420Z,23.90
2023-01-09T06:58:48.789Z,24.20
2023-01-09T07:01:17.223Z,24.40
2023-01-09T07:03:46.345Z,31.30
2023-01-09T07:06:15.503Z,33.30
2023-01-09T07:08:47.975Z,30.50
2023-01-09T07:11:16.563Z,80.80
2023-01-09T07:13:47.344Z,32.80
2023-01-09T07:16:15.594Z,28.20
2023-01-09T07:18:49.284Z,30.20
2023-01-09T07:21:17.552Z,32.70
2023-01-09T07:23:45.677Z,29.20
2023-01-09T07:26:14.312Z,25.00
2023-01-09T07:28:42.464Z,15.40
2023-01-09T07:31:13.075Z,18.70
2023-01-09T07:33:41.340Z,27.20
2023-01-09T07:36:09.734Z,19.50
2023-01-09T07:38:38.053Z,19.10
2023-01-09T07:41:06.211Z,18.10
2023-01-09T07:43:34.440Z,26.90
2023-01-09T07:46:05.342Z,21.80
2023-01-09T07:48:33.750Z,27.40
2023-01-09T07:51:02.294Z,23.40
2023-01-09T07:53:36.682Z,20.90
2023-01-09T07:56:05.427Z,25.20
2023-01-09T07:58:33.589Z,30.10
2023-01-09T08:01:01.969Z,23.10
2023-01-09T08:03:30.481Z,23.40
2023-01-09T08:05:59.099Z,22.50
2023-01-09T08:08:28.177Z,21.20
2023-01-09T08:10:59.230Z,20.40
2023-01-09T08:13:27.439Z,22.20
2023-01-09T08:15:58.311Z,21.20
2023-01-09T08:18:26.810Z,22.80
2023-01-09T08:20:57.727Z,21.40
2023-01-09T08:23:29.218Z,14.30
2023-01-09T08:26:00.387Z,21.30
2023-01-09T08:28:28.624Z,20.40
2023-01-09T08:30:59.199Z,26.50
2023-01-09T08:33:27.605Z,31.70
2023-01-09T08:35:56.121Z,34.70
2023-01-09T08:38:24.477Z,43.30
2023-01-09T08:40:55.819Z,38.80
2023-01-09T08:43:45.421Z,36.70
2023-01-09T08:46:40.110Z,31.80
2023-01-09T08:49:08.352Z,35.60
2023-01-09T08:51:39.755Z,36.20
2023-01-09T08:54:07.952Z,29.20
2023-01-09T08:56:38.289Z,21.90
2023-01-09T08:59:06.616Z,24.10
2023-01-09T09:01:34.953Z,23.50
2023-01-09T09:04:05.463Z,25.40
2023-01-09T09:06:34.835Z,28.20
2023-01-09T09:09:07.071Z,27.10
2023-01-09T09:11:37.738Z,36.40
2023-01-09T09:14:25.903Z,25.50
2023-01-09T09:16:54.451Z,32.50
2023-01-09T09:19:22.955Z,32.80
2023-01-09T09:21:51.043Z,28.80
2023-01-09T09:24:22.370Z,32.50
2023-01-09T09:26:50.606Z,32.30
2023-01-09T09:29:19.516Z,28.20
2023-01-09T09:31:48.046Z,31.70
2023-01-09T09:34:16.288Z,34.20
2023-01-09T09:36:52.084Z,28.20
2023-01-09T09:39:20.506Z,34.70
2023-01-09T09:42:40.433Z,31.70
2023-01-09T09:45:58.812Z,33.90
2023-01-09T09:48:37.008Z,23.60
2023-01-09T09:51:37.891Z,29.10
2023-01-09T09:54:15.100Z,73.40
2023-01-09T09:57:02.345Z,40.40
2023-01-09T09:59:34.850Z,61.70
2023-01-09T10:02:23.853Z,33.50
2023-01-09T10:05:06.295Z,27.70
2023-01-09T10:07:44.688Z,33.40
2023-01-09T10:10:36.149Z,36.20
2023-01-09T10:13:30.766Z,35.50
2023-01-09T10:16:14.814Z,44.50
2023-01-09T10:18:45.982Z,37.00
2023-01-09T10:21:21.953Z,37.60
2023-01-09T10:24:21.050Z,34.10
2023-01-09T10:26:52.802Z,41.70
2023-01-09T10:29:36.552Z,40.90
2023-01-09T10:32:52.269Z,43.60
2023-01-09T10:35:47.293Z,43.10
2023-01-09T10:38:23.053Z,47.70
2023-01-09T10:41:32.186Z,100.70
2023-01-09T10:44:08.342Z,51.30
2023-01-09T10:46:43.424Z,29.40
2023-01-09T10:49:16.330Z,34.50
2023-01-09T10:51:57.752Z,28.00
2023-01-09T10:54:28.354Z,28.10
2023-01-09T10:57:27.037Z,33.80
2023-01-09T10:59:56.611Z,43.50
2023-01-09T11:02:29.792Z,44.70
2023-01-09T11:04:57.997Z,40.80
2023-01-09T11:07:33.214Z,41.20
2023-01-09T11:10:05.603Z,37.80
2023-01-09T11:12:36.018Z,39.00
2023-01-09T11:15:16.194Z,34.40
2023-01-09T11:17:44.690Z,34.10
2023-01-09T11:20:23.633Z,32.00
2023-01-09T11:22:57.717Z,37.10
2023-01-09T11:25:28.566Z,32.80
2023-01-09T11:28:02.629Z,36.70
2023-01-09T11:30:38.443Z,34.90
2023-01-09T11:33:20.708Z,43.10
2023-01-09T11:35:57.736Z,35.30
2023-01-09T11:38:27.062Z,38.90
2023-01-09T11:41:01.714Z,46.20
2023-01-09T11:43:38.236Z,55.40
2023-01-09T11:46:09.173Z,52.40
2023-01-09T11:48:40.998Z,40.90
2023-01-09T11:51:21.869Z,43.70
2023-01-09T11:54:22.860Z,38.50
2023-01-09T11:56:52.005Z,33.70
2023-01-09T11:59:23.205Z,38.50
2023-01-09T12:02:09.845Z,35.50
2023-01-09T12:04:47.053Z,33.50
2023-01-09T12:07:37.297Z,30.20
2023-01-09T12:10:36.775Z,30.10
2023-01-09T12:13:34.004Z,29.50
2023-01-09T12:16:02.302Z,24.60
2023-01-09T12:18:36.531Z,23.60
2023-01-09T12:21:30.928Z,27.00
2023-01-09T12:24:33.724Z,26.90
2023-01-09T12:27:24.660Z,21.70
2023-01-09T12:30:10.889Z,25.40
2023-01-09T12:33:12.878Z,21.70
2023-01-09T12:35:54.821Z,29.40
2023-01-09T12:38:41.940Z,23.30
2023-01-09T12:41:23.194Z,19.00
2023-01-09T12:44:35.175Z,28.80
2023-01-09T12:47:41.370Z,33.90
2023-01-09T12:50:55.122Z,25.90
2023-01-09T12:53:32.560Z,23.10
2023-01-09T12:56:07.622Z,34.40
2023-01-09T12:58:44.921Z,31.30
2023-01-09T13:01:38.820Z,31.00
2023-01-09T13:04:14.151Z,24.00
2023-01-09T13:06:47.108Z,24.60
2023-01-09T13:09:29.316Z,27.20
2023-01-09T13:12:08.937Z,31.90
2023-01-09T13:15:10.662Z,28.60
2023-01-09T13:18:14.167Z,26.70
2023-01-09T13:20:47.455Z,25.50
2023-01-09T13:23:29.785Z,23.90
2023-01-09T13:26:03.224Z,26.70
2023-01-09T13:28:57.209Z,25.30
2023-01-09T13:31:49.114Z,28.60
2023-01-09T13:34:25.094Z,29.30
2023-01-09T13:36:56.191Z,29.80
2023-01-09T13:39:27.113Z,37.10
2023-01-09T13:42:19.109Z,32.00
2023-01-09T13:44:56.008Z,34.90
2023-01-09T13:47:28.754Z,29.80
2023-01-09T13:50:01.816Z,32.90
2023-01-09T13:52:40.541Z,27.20
2023-01-09T13:55:11.677Z,29.20
2023-01-09T13:57:45.200Z,24.50
2023-01-09T14:00:14.531Z,26.90
2023-01-09T14:02:46.814Z,29.40
2023-01-09T14:05:24.277Z,27.70
2023-01-09T14:08:03.766Z,26.90
2023-01-09T14:10:48.250Z,33.20
2023-01-09T14:16:02.134Z,43.80
2023-01-09T14:18:34.041Z,37.00
2023-01-09T14:21:08.922Z,33.50
2023-01-09T14:24:07.080Z,48.00
2023-01-09T14:26:42.875Z,37.20
2023-01-09T14:29:44.694Z,54.00
2023-01-09T14:32:29.908Z,65.90
2023-01-09T14:35:25.445Z,69.20
2023-01-09T14:38:03.153Z,67.60
2023-01-09T14:40:33.451Z,79.80
2023-01-09T14:43:13.246Z,83.30
2023-01-09T14:45:47.972Z,96.70
2023-01-09T14:48:18.299Z,101.00
2023-01-09T14:50:55.475Z,114.90
2023-01-09T14:53:31.632Z,87.00
2023-01-09T14:56:01.919Z,106.50
2023-01-09T14:58:32.562Z,103.40
2023-01-09T15:01:06.760Z,82.90
2023-01-09T15:03:38.578Z,50.20
2023-01-09T15:06:12.355Z,35.70
2023-01-09T15:08:46.101Z,44.40
2023-01-09T15:11:14.686Z,34.00
2023-01-09T15:13:46.778Z,39.30
2023-01-09T15:16:19.421Z,36.90
2023-01-09T15:18:53.805Z,61.90
2023-01-09T15:21:24.884Z,41.90
2023-01-09T15:23:53.178Z,53.80
2023-01-09T15:26:29.206Z,399.50
2023-01-09T15:29:04.915Z,133.40
2023-01-09T15:31:33.177Z,96.90
2023-01-09T15:34:04.482Z,83.70
2023-01-09T15:36:32.834Z,69.20
2023-01-09T15:39:01.075Z,66.60
2023-01-09T15:41:49.314Z,55.30
2023-01-09T15:44:25.964Z,51.10
2023-01-09T15:46:59.573Z,69.80
2023-01-09T15:49:28.107Z,58.50
2023-01-09T15:51:56.966Z,55.40
2023-01-09T15:54:32.955Z,62.20
2023-01-09T15:57:26.094Z,67.50
2023-01-09T15:59:55.596Z,68.60
2023-01-09T16:02:44.327Z,70.10
2023-01-09T16:05:16.338Z,58.30
2023-01-09T16:07:49.338Z,58.50
2023-01-09T16:10:21.938Z,54.50
2023-01-09T16:12:52.773Z,38.00
2023-01-09T16:15:21.695Z,50.40
2023-01-09T16:18:17.876Z,50.60
2023-01-09T16:20:46.340Z,45.90
2023-01-09T16:23:29.461Z,341.30
2023-01-09T16:26:12.185Z,270.80
2023-01-09T16:28:43.560Z,159.60
2023-01-09T16:31:28.083Z,90.90
2023-01-09T16:34:06.013Z,73.10
2023-01-09T16:36:35.798Z,63.40
2023-01-09T16:39:04.749Z,60.20
2023-01-09T16:41:51.270Z,68.70
2023-01-09T16:44:19.601Z,81.80
2023-01-09T16:46:48.128Z,191.30
2023-01-09T16:49:26.933Z,185.20
2023-01-09T16:52:02.923Z,102.40
2023-01-09T16:54:31.240Z,70.20
2023-01-09T16:57:04.591Z,51.80
2023-01-09T16:59:32.917Z,51.00
2023-01-09T17:02:17.829Z,56.10
2023-01-09T17:04:46.666Z,56.90
2023-01-09T17:07:19.398Z,58.20
2023-01-09T17:09:47.742Z,64.70
2023-01-09T17:12:20.013Z,63.30
2023-01-09T17:14:49.422Z,58.60
2023-01-09T17:17:18.045Z,43.80
2023-01-09T17:19:46.892Z,50.10
2023-01-09T17:22:15.677Z,51.80
2023-01-09T17:25:02.704Z,55.80
2023-01-09T17:27:55.801Z,49.50
2023-01-09T17:30:28.748Z,51.40
2023-01-09T17:32:56.977Z,55.70
2023-01-09T17:35:25.567Z,57.10
2023-01-09T17:38:00.128Z,61.20
2023-01-09T17:40:29.232Z,53.20
2023-01-09T17:42:57.570Z,60.80
2023-01-09T17:45:26.833Z,52.20
2023-01-09T17:47:54.998Z,58.50
2023-01-09T17:50:34.834Z,53.20
2023-01-09T17:53:03.089Z,53.70
2023-01-09T17:55:31.262Z,58.00
2023-01-09T17:58:02.330Z,58.00
2023-01-09T18:00:36.966Z,67.00
2023-01-09T18:03:07.602Z,67.10
2023-01-09T18:05:37.175Z,65.60
2023-01-09T18:08:12.303Z,50.10
2023-01-09T18:10:40.761Z,41.70
2023-01-09T18:13:11.085Z,40.50
2023-01-09T18:15:42.206Z,47.90
2023-01-09T18:18:12.976Z,43.10
2023-01-09T18:20:42.141Z,44.50
2023-01-09T18:23:11.081Z,41.70
2023-01-09T18:25:43.135Z,42.40
2023-01-09T18:28:15.473Z,53.30
2023-01-09T18:30:45.272Z,50.20
2023-01-09T18:33:15.069Z,62.90
2023-01-09T18:35:45.141Z,81.60
2023-01-09T18:38:13.863Z,79.40
2023-01-09T18:40:42.713Z,87.60
2023-01-09T18:43:11.504Z,109.30
2023-01-09T18:45:40.124Z,80.10
2023-01-09T18:48:09.638Z,77.80
2023-01-09T18:50:37.953Z,85.70
2023-01-09T18:53:06.438Z,84.60
2023-01-09T18:55:37.778Z,67.20
2023-01-09T18:58:06.480Z,56.50
2023-01-09T19:00:34.748Z,66.90
2023-01-09T19:03:03.256Z,78.80
2023-01-09T19:05:33.078Z,120.20
2023-01-09T19:08:01.174Z,106.30
2023-01-09T19:10:29.354Z,109.60
2023-01-09T19:12:57.654Z,113.80
2023-01-09T19:15:26.541Z,72.20
2023-01-09T19:17:55.652Z,55.90
2023-01-09T19:20:23.976Z,90.00
2023-01-09T19:22:52.174Z,67.50
2023-01-09T19:25:21.464Z,52.30
2023-01-09T19:27:49.543Z,45.90
2023-01-09T19:30:18.047Z,45.80
2023-01-09T19:32:46.271Z,47.70
2023-01-09T19:35:14.457Z,43.20
2023-01-09T19:37:42.653Z,49.70
2023-01-09T19:40:11.648Z,51.10
2023-01-09T19:42:39.919Z,111.30
2023-01-09T19:45:08.887Z,119.20
2023-01-09T19:47:38.129Z,127.10
2023-01-09T19:50:08.369Z,131.70
2023-01-09T19:52:37.571Z,102.00
2023-01-09T19:55:06.393Z,154.80
2023-01-09T19:57:34.519Z,112.20
2023-01-09T20:00:02.859Z,99.30
2023-01-09T20:02:41.911Z,78.00
2023-01-09T20:05:10.411Z,60.30
2023-01-09T20:07:38.786Z,59.70
2023-01-09T20:10:07.561Z,62.30
2023-01-09T20:12:35.925Z,61.20
2023-01-09T20:15:05.222Z,67.10
2023-01-09T20:17:33.341Z,60.70
2023-01-09T20:20:01.946Z,61.10
2023-01-09T20:22:30.281Z,69.30
2023-01-09T20:25:00.983Z,55.60
2023-01-09T20:27:29.363Z,68.80
2023-01-09T20:29:57.696Z,69.30
2023-01-09T20:32:30.029Z,63.60
2023-01-09T20:35:00.858Z,63.10
2023-01-09T20:37:31.633Z,91.20
2023-01-09T20:39:59.905Z,78.30
2023-01-09T20:42:31.149Z,243.20
2023-01-09T20:44:59.764Z,63.40
2023-01-09T20:47:29.028Z,55.00
2023-01-09T20:50:02.587Z,49.80
2023-01-09T20:52:30.747Z,41.80
2023-01-09T20:55:01.906Z,53.30
2023-01-09T20:57:31.087Z,51.20
2023-01-09T21:00:01.799Z,50.00
2023-01-09T21:02:30.311Z,45.00
2023-01-09T21:04:58.702Z,44.30
2023-01-09T21:07:27.916Z,48.30
2023-01-09T21:09:56.558Z,46.60
2023-01-09T21:12:34.856Z,46.10
2023-01-09T21:15:08.419Z,48.80
2023-01-09T21:17:39.016Z,49.80
2023-01-09T21:20:11.348Z,48.90
2023-01-09T21:22:42.314Z,41.90
2023-01-09T21:25:10.624Z,37.20
2023-01-09T21:27:41.227Z,39.30
2023-01-09T21:30:10.982Z,42.10
2023-01-09T21:32:39.269Z,46.40
2023-01-09T21:35:07.947Z,47.10
2023-01-09T21:37:37.380Z,43.20
2023-01-09T21:40:13.894Z,46.90
2023-01-09T21:43:00.734Z,41.30
2023-01-09T21:45:48.348Z,49.10
2023-01-09T21:48:19.750Z,50.90
2023-01-09T21:50:47.920Z,45.70
2023-01-09T21:53:16.336Z,44.90
2023-01-09T21:55:44.634Z,48.90
2023-01-09T21:58:12.771Z,44.50
2023-01-09T22:00:41.308Z,39.50
2023-01-09T22:03:19.711Z,35.20
2023-01-09T22:05:50.126Z,38.50
2023-01-09T22:10:58.538Z,39.40
2023-01-09T22:13:30.174Z,41.30
2023-01-09T22:16:06.945Z,43.30
2023-01-09T22:18:36.510Z,42.50
2023-01-09T22:21:04.737Z,41.10
2023-01-09T22:23:33.021Z,43.00
2023-01-09T22:26:07.714Z,44.90
2023-01-09T22:28:35.846Z,35.80
2023-01-09T22:31:12.297Z,42.80
2023-01-09T22:33:40.479Z,54.80
2023-01-09T22:36:11.575Z,43.40
2023-01-09T22:38:39.684Z,42.30
2023-01-09T22:41:07.820Z,40.60
2023-01-09T22:43:35.867Z,36.20
2023-01-09T22:46:09.692Z,37.30
2023-01-09T22:48:39.871Z,34.20
2023-01-09T22:51:18.497Z,36.10
2023-01-09T22:53:47.205Z,40.20
2023-01-09T22:56:18.037Z,39.00
2023-01-09T22:58:58.537Z,38.60
2023-01-09T23:01:27.394Z,35.80
2023-01-09T23:03:55.610Z,41.80
2023-01-09T23:06:23.837Z,47.70
2023-01-09T23:08:52.911Z,38.30
2023-01-09T23:12:06.073Z,43.80
2023-01-09T23:14:38.149Z,46.10
2023-01-09T23:17:08.977Z,38.50
2023-01-09T23:19:37.675Z,37.50
2023-01-09T23:22:06.275Z,42.60
2023-01-09T23:24:34.868Z,38.00
2023-01-09T23:27:04.480Z,33.30
2023-01-09T23:29:33.193Z,42.90
2023-01-09T23:32:06.809Z,32.30
2023-01-09T23:34:37.852Z,35.40
2023-01-09T23:37:09.195Z,37.40
2023-01-09T23:39:37.663Z,31.80
2023-01-09T23:42:24.712Z,33.60
2023-01-09T23:44:55.905Z,31.70
2023-01-09T23:47:24.211Z,33.80
2023-01-09T23:49:52.818Z,31.50
2023-01-09T23:52:20.975Z,36.00
2023-01-09T23:54:49.188Z,30.50
2023-01-09T23:57:17.403Z,30.70
2023-01-09T23:59:46.020Z,29.30
